createdAt,value
2022-07-29T00:02:47.606Z,43.07
2022-07-29T00:05:50.244Z,43.25
2022-07-29T00:08:52.452Z,43.44
2022-07-29T00:11:55.999Z,43.40
2022-07-29T00:14:58.456Z,43.41
2022-07-29T00:18:00.901Z,43.51
2022-07-29T00:21:03.287Z,43.80
2022-07-29T00:24:05.837Z,43.72
2022-07-29T00:27:07.968Z,43.99
2022-07-29T00:30:10.677Z,44.44
2022-07-29T00:33:12.892Z,44.30
2022-07-29T00:36:15.259Z,44.63
2022-07-29T00:39:17.387Z,44.29
2022-07-29T00:42:19.927Z,44.55
2022-07-29T00:45:23.129Z,44.39
2022-07-29T00:48:25.623Z,44.45
2022-07-29T00:51:28.381Z,44.26
2022-07-29T00:54:31.244Z,44.43
2022-07-29T00:57:34.259Z,44.41
2022-07-29T01:00:37.806Z,44.42
2022-07-29T01:03:40.075Z,44.07
2022-07-29T01:06:43.605Z,44.53
2022-07-29T01:09:47.665Z,44.89
2022-07-29T01:12:52.258Z,45.48
2022-07-29T01:16:04.336Z,45.28
2022-07-29T01:19:28.686Z,44.98
2022-07-29T01:22:53.996Z,45.30
2022-07-29T01:26:05.332Z,45.26
2022-07-29T01:29:11.224Z,45.27
2022-07-29T01:32:28.129Z,45.39
2022-07-29T01:35:42.834Z,45.37
2022-07-29T01:38:51.840Z,45.73
2022-07-29T01:42:23.625Z,45.54
2022-07-29T01:45:35.116Z,45.70
2022-07-29T01:48:46.729Z,45.91
2022-07-29T01:52:12.344Z,45.80
2022-07-29T01:55:17.385Z,45.79
2022-07-29T01:58:21.659Z,45.77
2022-07-29T02:01:26.036Z,45.72
2022-07-29T02:04:31.122Z,46.01
2022-07-29T02:07:34.714Z,46.37
2022-07-29T02:10:41.018Z,46.43
2022-07-29T02:13:45.214Z,46.97
2022-07-29T02:16:50.957Z,46.93
2022-07-29T02:19:57.213Z,47.14
2022-07-29T02:23:01.546Z,47.32
2022-07-29T02:26:03.926Z,47.25
2022-07-29T02:29:07.849Z,47.27
2022-07-29T02:32:13.468Z,47.74
2022-07-29T02:35:17.382Z,47.60
2022-07-29T02:38:41.987Z,47.69
2022-07-29T02:41:52.547Z,47.69
2022-07-29T02:44:55.097Z,47.83
2022-07-29T02:48:00.671Z,47.86
2022-07-29T02:51:09.345Z,48.08
2022-07-29T02:54:27.104Z,47.59
2022-07-29T02:57:54.970Z,47.74
2022-07-29T03:01:02.256Z,47.84
2022-07-29T03:04:06.039Z,47.50
2022-07-29T03:07:11.275Z,48.04
2022-07-29T03:10:14.067Z,48.27
2022-07-29T03:13:17.402Z,48.38
2022-07-29T03:16:21.043Z,48.34
2022-07-29T03:19:23.776Z,48.44
2022-07-29T03:22:27.072Z,48.57
2022-07-29T03:25:29.614Z,48.58
2022-07-29T03:28:31.837Z,48.22
2022-07-29T03:31:34.249Z,48.50
2022-07-29T03:34:38.400Z,48.44
2022-07-29T03:37:40.791Z,48.08
2022-07-29T03:41:06.124Z,48.44
2022-07-29T03:44:09.434Z,48.80
2022-07-29T03:47:14.298Z,48.69
2022-07-29T03:50:17.772Z,48.44
2022-07-29T03:53:19.999Z,48.76
2022-07-29T03:56:24.323Z,48.57
2022-07-29T03:59:27.952Z,48.60
2022-07-29T04:02:31.397Z,48.46
2022-07-29T04:05:33.994Z,48.40
2022-07-29T04:08:36.182Z,48.95
2022-07-29T04:12:01.617Z,49.16
2022-07-29T04:15:05.735Z,48.87
2022-07-29T04:18:08.135Z,49.03
2022-07-29T04:21:10.258Z,49.10
2022-07-29T04:24:13.125Z,49.38
2022-07-29T04:27:15.439Z,49.70
2022-07-29T04:30:19.887Z,49.40
2022-07-29T04:33:22.025Z,49.79
2022-07-29T04:36:29.463Z,50.21
2022-07-29T04:39:32.030Z,50.07
2022-07-29T04:42:34.447Z,50.33
2022-07-29T04:45:47.214Z,50.13
2022-07-29T04:48:49.840Z,50.93
2022-07-29T04:51:52.046Z,51.19
2022-07-29T04:54:54.443Z,51.02
2022-07-29T04:57:56.547Z,51.39
2022-07-29T05:00:59.314Z,50.59
2022-07-29T05:04:01.438Z,50.40
2022-07-29T05:07:03.945Z,50.46
2022-07-29T05:10:06.430Z,50.57
2022-07-29T05:13:09.145Z,50.19
2022-07-29T05:16:11.371Z,50.40
2022-07-29T05:19:14.699Z,50.32
2022-07-29T05:22:17.061Z,50.19
2022-07-29T05:25:19.437Z,50.01
2022-07-29T05:28:21.572Z,50.10
2022-07-29T05:31:24.013Z,49.88
2022-07-29T05:34:26.246Z,49.56
2022-07-29T05:37:28.658Z,48.78
2022-07-29T05:40:31.127Z,49.35
2022-07-29T05:43:33.866Z,49.01
2022-07-29T05:46:35.987Z,49.92
2022-07-29T05:49:38.767Z,50.02
2022-07-29T05:52:40.885Z,49.31
2022-07-29T05:55:43.610Z,48.44
2022-07-29T05:58:45.777Z,48.65
2022-07-29T06:01:48.429Z,47.07
2022-07-29T06:04:50.884Z,47.78
2022-07-29T06:07:53.085Z,47.92
2022-07-29T06:10:55.461Z,48.50
2022-07-29T06:13:57.624Z,48.96
2022-07-29T06:17:00.034Z,48.59
2022-07-29T06:20:03.664Z,48.15
2022-07-29T06:23:06.090Z,47.84
2022-07-29T06:26:08.267Z,47.86
2022-07-29T06:29:11.672Z,48.54
2022-07-29T06:32:16.100Z,49.49
2022-07-29T06:35:38.424Z,49.93
2022-07-29T06:38:42.891Z,49.97
2022-07-29T06:41:51.562Z,49.54
2022-07-29T06:44:53.785Z,48.86
2022-07-29T06:47:56.242Z,49.51
2022-07-29T06:50:58.652Z,48.06
2022-07-29T06:54:13.554Z,49.45
2022-07-29T06:57:15.736Z,48.18
2022-07-29T07:00:18.371Z,48.79
2022-07-29T07:03:20.711Z,47.91
2022-07-29T07:06:23.172Z,47.83
2022-07-29T07:09:25.476Z,47.20
2022-07-29T07:12:42.714Z,46.45
2022-07-29T07:15:46.470Z,45.39
2022-07-29T07:18:48.862Z,45.95
2022-07-29T07:21:51.023Z,44.65
2022-07-29T07:24:53.422Z,45.42
2022-07-29T07:27:55.590Z,45.29
2022-07-29T07:30:58.310Z,44.83
2022-07-29T07:34:00.458Z,44.76
2022-07-29T07:37:03.016Z,43.43
2022-07-29T07:40:06.013Z,42.07
2022-07-29T07:43:08.395Z,41.27
2022-07-29T07:46:10.567Z,41.67
2022-07-29T07:49:13.175Z,41.59
2022-07-29T07:52:16.997Z,40.22
2022-07-29T07:55:19.864Z,40.47
2022-07-29T07:58:22.244Z,39.44
2022-07-29T08:01:24.788Z,38.52
2022-07-29T08:04:29.059Z,45.87
2022-07-29T08:07:31.619Z,42.34
2022-07-29T08:10:52.957Z,40.12
2022-07-29T08:13:55.495Z,40.00
2022-07-29T08:16:58.223Z,39.17
2022-07-29T08:20:00.345Z,41.86
2022-07-29T08:23:07.476Z,41.65
2022-07-29T08:26:13.118Z,40.27
2022-07-29T08:29:19.748Z,42.34
2022-07-29T08:32:43.468Z,42.87
2022-07-29T08:35:44.795Z,41.70
2022-07-29T08:38:47.238Z,44.78
2022-07-29T08:41:57.314Z,38.24
2022-07-29T08:44:59.906Z,34.52
2022-07-29T08:48:02.430Z,36.48
2022-07-29T08:51:06.112Z,35.96
2022-07-29T08:54:10.362Z,35.21
2022-07-29T08:57:16.780Z,34.79
2022-07-29T09:00:20.325Z,32.75
2022-07-29T09:03:26.478Z,33.11
2022-07-29T09:06:34.166Z,31.80
2022-07-29T09:09:36.378Z,30.52
2022-07-29T09:12:39.131Z,30.02
2022-07-29T09:15:41.259Z,29.73
2022-07-29T09:18:45.603Z,29.36
2022-07-29T09:22:00.112Z,30.60
2022-07-29T09:25:02.802Z,28.18
2022-07-29T09:28:15.753Z,27.83
2022-07-29T09:31:18.184Z,30.41
2022-07-29T09:34:26.144Z,27.96
2022-07-29T09:37:29.492Z,27.17
2022-07-29T09:40:32.945Z,28.10
2022-07-29T09:43:35.385Z,26.25
2022-07-29T09:46:37.608Z,26.49
2022-07-29T09:49:59.111Z,26.79
2022-07-29T09:53:01.380Z,25.89
2022-07-29T09:56:05.319Z,26.69
2022-07-29T09:59:09.049Z,26.62
2022-07-29T10:02:20.323Z,26.04
2022-07-29T10:05:36.315Z,26.58
2022-07-29T10:08:39.115Z,26.95
2022-07-29T10:11:49.496Z,26.01
2022-07-29T10:14:52.172Z,26.21
2022-07-29T10:17:56.147Z,25.43
2022-07-29T10:20:59.023Z,25.17
2022-07-29T10:24:02.066Z,24.90
2022-07-29T10:27:06.184Z,24.83
2022-07-29T10:30:09.451Z,25.48
2022-07-29T10:33:15.667Z,24.71
2022-07-29T10:36:27.364Z,25.36
2022-07-29T10:39:49.555Z,23.74
2022-07-29T10:42:54.171Z,24.63
2022-07-29T10:45:58.625Z,25.87
2022-07-29T10:49:16.595Z,25.43
2022-07-29T10:52:20.745Z,24.23
2022-07-29T10:55:37.673Z,25.80
2022-07-29T10:58:39.889Z,25.53
2022-07-29T11:01:46.431Z,26.64
2022-07-29T11:04:52.725Z,28.00
2022-07-29T11:08:20.512Z,27.67
2022-07-29T11:11:29.784Z,26.49
2022-07-29T11:14:59.932Z,25.93
2022-07-29T11:18:02.183Z,24.50
2022-07-29T11:21:04.577Z,24.15
2022-07-29T11:24:28.563Z,24.80
2022-07-29T11:27:40.449Z,24.76
2022-07-29T11:30:51.448Z,24.29
2022-07-29T11:37:18.025Z,24.27
2022-07-29T11:40:22.958Z,24.33
2022-07-29T11:43:47.628Z,24.30
2022-07-29T11:46:54.278Z,24.69
2022-07-29T11:49:59.872Z,24.15
2022-07-29T11:53:13.027Z,24.28
2022-07-29T11:56:22.302Z,24.12
2022-07-29T11:59:33.472Z,24.46
2022-07-29T12:02:43.112Z,24.22
2022-07-29T12:05:48.217Z,24.21
2022-07-29T12:08:53.955Z,24.81
2022-07-29T12:12:05.107Z,25.79
2022-07-29T12:15:21.428Z,25.13
2022-07-29T12:18:25.909Z,25.25
2022-07-29T12:21:29.316Z,25.82
2022-07-29T12:24:45.212Z,25.00
2022-07-29T12:27:48.369Z,24.89
2022-07-29T12:30:51.823Z,24.42
2022-07-29T12:33:54.838Z,24.41
2022-07-29T12:36:58.054Z,23.94
2022-07-29T12:40:00.373Z,24.17
2022-07-29T12:43:10.145Z,24.61
2022-07-29T12:46:15.593Z,24.66
2022-07-29T12:49:24.110Z,24.76
2022-07-29T12:52:31.573Z,25.23
2022-07-29T12:55:44.395Z,25.49
2022-07-29T12:58:50.841Z,25.53
2022-07-29T13:01:53.951Z,25.36
2022-07-29T13:04:58.766Z,25.34
2022-07-29T13:08:22.034Z,25.77
2022-07-29T13:11:35.102Z,25.49
2022-07-29T13:14:48.431Z,24.72
2022-07-29T13:17:50.590Z,24.97
2022-07-29T13:20:53.182Z,26.38
2022-07-29T13:23:55.299Z,25.56
2022-07-29T13:26:57.651Z,24.72
2022-07-29T13:30:01.714Z,24.76
2022-07-29T13:33:04.347Z,25.42
2022-07-29T13:36:06.763Z,25.16
2022-07-29T13:39:09.145Z,25.08
2022-07-29T13:42:14.061Z,25.68
2022-07-29T13:45:16.878Z,26.17
2022-07-29T13:48:18.992Z,26.27
2022-07-29T13:51:21.386Z,26.67
2022-07-29T13:54:23.559Z,25.79
2022-07-29T13:57:25.943Z,25.95
2022-07-29T14:00:28.305Z,25.87
2022-07-29T14:03:30.728Z,25.79
2022-07-29T14:06:32.836Z,25.65
2022-07-29T14:09:40.922Z,25.21
2022-07-29T14:12:43.909Z,25.04
2022-07-29T14:15:46.314Z,25.10
2022-07-29T14:18:48.419Z,24.62
2022-07-29T14:21:51.049Z,25.06
2022-07-29T14:24:53.548Z,26.00
2022-07-29T14:27:56.125Z,26.01
2022-07-29T14:31:00.747Z,26.54
2022-07-29T14:34:03.572Z,26.71
2022-07-29T14:37:07.355Z,27.26
2022-07-29T14:40:11.292Z,27.25
2022-07-29T14:43:14.697Z,26.67
2022-07-29T14:46:17.100Z,26.84
2022-07-29T14:49:19.299Z,26.48
2022-07-29T14:52:21.770Z,26.07
2022-07-29T14:55:24.083Z,25.87
2022-07-29T14:58:26.479Z,25.36
2022-07-29T15:01:28.761Z,25.47
2022-07-29T15:04:31.492Z,25.55
2022-07-29T15:07:33.646Z,25.37
2022-07-29T15:10:36.299Z,25.54
2022-07-29T15:13:38.567Z,25.63
2022-07-29T15:16:44.047Z,26.12
2022-07-29T15:19:49.151Z,25.67
2022-07-29T15:22:51.658Z,25.80
2022-07-29T15:25:53.924Z,25.91
2022-07-29T15:28:59.095Z,25.63
2022-07-29T15:32:06.019Z,26.24
2022-07-29T15:35:08.496Z,26.12
2022-07-29T15:38:10.639Z,26.18
2022-07-29T15:41:15.979Z,25.88
2022-07-29T15:44:18.554Z,26.14
2022-07-29T15:47:20.915Z,25.80
2022-07-29T15:50:23.073Z,25.62
2022-07-29T15:53:25.870Z,25.44
2022-07-29T15:56:28.035Z,25.58
2022-07-29T15:59:30.614Z,25.70
2022-07-29T16:02:32.842Z,25.61
2022-07-29T16:05:35.232Z,25.68
2022-07-29T16:08:39.790Z,25.54
2022-07-29T16:11:42.984Z,26.03
2022-07-29T16:14:45.296Z,25.96
2022-07-29T16:17:47.738Z,25.47
2022-07-29T16:20:49.834Z,25.76
2022-07-29T16:23:52.866Z,25.44
2022-07-29T16:26:56.122Z,26.10
2022-07-29T16:29:58.808Z,25.54
2022-07-29T16:33:08.116Z,25.99
2022-07-29T16:36:10.811Z,26.28
2022-07-29T16:39:15.501Z,25.78
2022-07-29T16:42:36.953Z,26.37
2022-07-29T16:45:46.009Z,26.50
2022-07-29T16:48:49.226Z,26.27
2022-07-29T16:51:51.386Z,26.48
2022-07-29T16:54:53.802Z,26.70
2022-07-29T16:57:55.994Z,27.02
2022-07-29T17:00:58.788Z,27.19
2022-07-29T17:04:07.078Z,27.98
2022-07-29T17:07:09.633Z,27.58
2022-07-29T17:10:11.776Z,28.10
2022-07-29T17:13:14.488Z,28.42
2022-07-29T17:16:16.790Z,28.87
2022-07-29T17:19:19.228Z,28.84
2022-07-29T17:22:23.881Z,29.32
2022-07-29T17:25:26.263Z,30.77
2022-07-29T17:28:28.403Z,32.23
2022-07-29T17:31:30.931Z,31.37
2022-07-29T17:34:33.104Z,31.58
2022-07-29T17:37:36.431Z,30.92
2022-07-29T17:40:38.578Z,32.29
2022-07-29T17:43:41.852Z,31.12
2022-07-29T17:46:43.954Z,30.85
2022-07-29T17:49:47.217Z,31.15
2022-07-29T17:52:49.417Z,32.87
2022-07-29T17:55:51.881Z,32.22
2022-07-29T17:58:54.445Z,33.04
2022-07-29T18:01:56.921Z,32.11
2022-07-29T18:04:59.360Z,32.10
2022-07-29T18:08:01.659Z,32.06
2022-07-29T18:11:04.011Z,32.78
2022-07-29T18:14:06.168Z,33.44
2022-07-29T18:17:08.657Z,33.59
2022-07-29T18:20:11.233Z,34.64
2022-07-29T18:23:13.762Z,35.74
2022-07-29T18:26:16.190Z,36.80
2022-07-29T18:29:18.947Z,36.73
2022-07-29T18:32:29.035Z,35.86
2022-07-29T18:35:32.577Z,35.79
2022-07-29T18:38:35.044Z,36.41
2022-07-29T18:41:50.311Z,36.25
2022-07-29T18:44:53.181Z,37.07
2022-07-29T18:47:57.011Z,36.66
2022-07-29T18:50:59.133Z,37.25
2022-07-29T18:54:01.565Z,38.31
2022-07-29T18:57:55.911Z,37.41
2022-07-29T19:00:27.119Z,36.28
2022-07-29T19:03:29.243Z,37.22
2022-07-29T19:06:31.662Z,36.97
2022-07-29T19:09:34.416Z,36.75
2022-07-29T19:12:36.917Z,36.25
2022-07-29T19:15:39.049Z,35.78
2022-07-29T19:18:43.085Z,35.58
2022-07-29T19:21:46.976Z,35.47
2022-07-29T19:24:50.276Z,35.60
2022-07-29T19:27:52.414Z,35.12
2022-07-29T19:30:54.937Z,35.41
2022-07-29T19:33:57.070Z,35.61
2022-07-29T19:36:59.903Z,35.75
2022-07-29T19:40:02.491Z,35.80
2022-07-29T19:43:51.442Z,36.35
2022-07-29T19:46:29.104Z,36.54
2022-07-29T19:49:32.643Z,36.89
2022-07-29T19:52:36.385Z,37.27
2022-07-29T19:55:38.740Z,37.07
2022-07-29T19:58:41.257Z,37.54
2022-07-29T20:01:43.753Z,37.66
2022-07-29T20:04:46.176Z,38.01
2022-07-29T20:07:48.362Z,37.92
2022-07-29T20:10:50.743Z,38.31
2022-07-29T20:13:52.861Z,38.30
2022-07-29T20:16:55.390Z,38.57
2022-07-29T20:19:59.918Z,38.64
2022-07-29T20:23:02.894Z,38.86
2022-07-29T20:26:09.239Z,39.27
2022-07-29T20:29:12.045Z,39.45
2022-07-29T20:32:14.185Z,39.48
2022-07-29T20:35:16.634Z,40.17
2022-07-29T20:38:21.880Z,40.21
2022-07-29T20:41:24.259Z,40.66
2022-07-29T20:44:26.382Z,41.09
2022-07-29T20:47:28.744Z,41.71
2022-07-29T20:50:30.992Z,42.47
2022-07-29T20:53:33.870Z,42.56
2022-07-29T20:56:36.035Z,43.10
2022-07-29T20:59:41.639Z,43.58
2022-07-29T21:02:47.716Z,43.92
2022-07-29T21:05:50.258Z,44.38
2022-07-29T21:08:52.484Z,44.52
2022-07-29T21:11:55.131Z,44.61
2022-07-29T21:14:57.818Z,45.18
2022-07-29T21:18:02.047Z,45.44
2022-07-29T21:21:05.163Z,45.89
2022-07-29T21:24:08.122Z,45.70
2022-07-29T21:27:32.483Z,45.94
2022-07-29T21:30:34.954Z,46.53
2022-07-29T21:33:37.266Z,47.05
2022-07-29T21:36:48.566Z,47.33
2022-07-29T21:39:51.252Z,47.58
2022-07-29T21:42:53.624Z,48.10
2022-07-29T21:45:57.457Z,48.18
2022-07-29T21:48:59.915Z,48.66
2022-07-29T21:52:02.129Z,49.20
2022-07-29T21:55:04.838Z,49.41
2022-07-29T21:58:07.243Z,49.74
2022-07-29T22:01:09.973Z,50.02
2022-07-29T22:04:12.370Z,50.47
2022-07-29T22:07:14.577Z,50.57
2022-07-29T22:10:17.290Z,51.02
2022-07-29T22:13:19.418Z,51.31
2022-07-29T22:16:21.813Z,51.50
2022-07-29T22:19:24.017Z,51.94
2022-07-29T22:22:30.170Z,52.02
2022-07-29T22:25:32.381Z,52.32
2022-07-29T22:28:34.745Z,52.64
2022-07-29T22:31:36.861Z,53.01
2022-07-29T22:34:39.331Z,53.17
2022-07-29T22:37:41.462Z,53.27
2022-07-29T22:40:43.886Z,53.30
2022-07-29T22:43:46.079Z,53.51
2022-07-29T22:46:48.455Z,53.95
2022-07-29T22:49:50.586Z,54.13
2022-07-29T22:52:52.987Z,54.44
2022-07-29T22:55:55.127Z,54.79
2022-07-29T22:58:57.540Z,55.70
2022-07-29T23:01:59.785Z,55.81
2022-07-29T23:05:02.173Z,55.75
2022-07-29T23:08:04.695Z,55.54
2022-07-29T23:11:07.683Z,55.62
2022-07-29T23:14:09.839Z,56.12
2022-07-29T23:17:12.242Z,56.24
2022-07-29T23:20:15.007Z,56.38
2022-07-29T23:23:17.512Z,57.13
2022-07-29T23:26:19.648Z,57.50
2022-07-29T23:29:22.021Z,57.48
2022-07-29T23:32:24.193Z,57.64
2022-07-29T23:35:27.052Z,57.18
2022-07-29T23:38:29.183Z,58.00
2022-07-29T23:41:31.748Z,58.23
2022-07-29T23:44:33.905Z,58.14
2022-07-29T23:47:36.336Z,58.55
2022-07-29T23:50:38.457Z,58.35
2022-07-29T23:53:53.405Z,58.27
2022-07-29T23:56:57.789Z,58.31
